createdAt,value
2019-02-21T00:00:30.444Z,100860.06
2019-02-21T00:03:03.023Z,100860.70
2019-02-21T00:05:35.553Z,100861.20
2019-02-21T00:08:11.095Z,100869.42
2019-02-21T00:10:44.484Z,100868.45
2019-02-21T00:13:19.840Z,100866.00
2019-02-21T00:15:53.735Z,100865.45
2019-02-21T00:18:26.446Z,100863.72
2019-02-21T00:21:00.238Z,100860.23
2019-02-21T00:23:33.083Z,100868.02
2019-02-21T00:26:05.660Z,100865.80
2019-02-21T00:28:38.575Z,100865.48
2019-02-21T00:31:12.063Z,100872.36
2019-02-21T00:33:44.811Z,100876.11
2019-02-21T00:36:17.731Z,100869.83
2019-02-21T00:38:50.327Z,100869.92
2019-02-21T00:41:22.926Z,100875.17
2019-02-21T00:43:55.835Z,100860.58
2019-02-21T00:46:29.431Z,100860.91
2019-02-21T00:49:02.311Z,100859.88
2019-02-21T00:51:36.317Z,100859.63
2019-02-21T00:54:10.446Z,100856.46
2019-02-21T00:56:43.870Z,100861.86
2019-02-21T00:59:16.889Z,100858.27
2019-02-21T01:01:49.416Z,100862.14
2019-02-21T01:04:24.313Z,100863.77
2019-02-21T01:06:57.438Z,100867.40
2019-02-21T01:09:30.512Z,100867.03
2019-02-21T01:12:03.030Z,100868.11
2019-02-21T01:14:35.939Z,100867.08
2019-02-21T01:17:08.791Z,100868.38
2019-02-21T01:19:41.789Z,100870.05
2019-02-21T01:22:15.418Z,100871.96
2019-02-21T01:24:48.097Z,100875.94
2019-02-21T01:27:20.677Z,100879.09
2019-02-21T01:29:53.822Z,100878.95
2019-02-21T01:32:26.370Z,100886.19
2019-02-21T01:34:59.282Z,100881.67
2019-02-21T01:37:33.323Z,100873.26
2019-02-21T01:40:06.424Z,100871.41
2019-02-21T01:42:38.928Z,100875.73
2019-02-21T01:45:14.826Z,100877.58
2019-02-21T01:47:47.498Z,100875.05
2019-02-21T01:50:20.377Z,100879.11
2019-02-21T01:52:53.227Z,100871.12
2019-02-21T01:55:25.790Z,100872.39
2019-02-21T01:57:58.335Z,100874.91
2019-02-21T02:00:32.459Z,100877.09
2019-02-21T02:03:05.411Z,100878.99
2019-02-21T02:05:37.877Z,100884.32
2019-02-21T02:08:11.325Z,100880.70
2019-02-21T02:10:44.205Z,100879.32
2019-02-21T02:13:24.017Z,100887.34
2019-02-21T02:15:58.546Z,100880.51
2019-02-21T02:18:31.039Z,100886.55
2019-02-21T02:21:04.487Z,100890.69
2019-02-21T02:23:37.446Z,100888.40
2019-02-21T02:26:10.151Z,100891.97
2019-02-21T02:28:43.808Z,100897.33
2019-02-21T02:31:22.785Z,100905.15
2019-02-21T02:33:56.375Z,100903.58
2019-02-21T02:36:29.709Z,100899.89
2019-02-21T02:39:04.802Z,100896.84
2019-02-21T02:41:37.358Z,100897.66
2019-02-21T02:44:10.976Z,100899.23
2019-02-21T02:46:44.618Z,100899.47
2019-02-21T02:49:17.163Z,100901.65
2019-02-21T02:51:49.739Z,100902.51
2019-02-21T02:54:24.291Z,100900.87
2019-02-21T02:56:58.612Z,100901.27
2019-02-21T02:59:40.312Z,100903.33
2019-02-21T03:02:14.446Z,100907.86
2019-02-21T03:04:47.004Z,100905.52
2019-02-21T03:07:20.670Z,100906.98
2019-02-21T03:09:56.868Z,100912.83
2019-02-21T03:12:30.507Z,100913.58
2019-02-21T03:15:06.601Z,100911.50
2019-02-21T03:17:39.757Z,100906.64
2019-02-21T03:20:12.314Z,100913.27
2019-02-21T03:22:44.876Z,100916.56
2019-02-21T03:25:17.349Z,100918.94
2019-02-21T03:27:51.443Z,100925.08
2019-02-21T03:30:24.044Z,100914.58
2019-02-21T03:32:56.525Z,100921.61
2019-02-21T03:35:30.669Z,100920.09
2019-02-21T03:38:03.219Z,100911.21
2019-02-21T03:40:35.924Z,100902.92
2019-02-21T03:43:08.768Z,100907.83
2019-02-21T03:45:41.484Z,100906.36
2019-02-21T03:48:16.378Z,100904.80
2019-02-21T03:50:49.338Z,100903.27
2019-02-21T03:53:28.556Z,100907.72
2019-02-21T03:56:01.071Z,100912.11
2019-02-21T03:58:34.389Z,100909.62
2019-02-21T04:01:07.125Z,100906.53
2019-02-21T04:03:40.699Z,100910.27
2019-02-21T04:06:13.272Z,100912.94
2019-02-21T04:08:45.986Z,100916.44
2019-02-21T04:11:21.134Z,100915.20
2019-02-21T04:13:55.713Z,100918.57
2019-02-21T04:16:28.285Z,100918.42
2019-02-21T04:19:00.868Z,100910.63
2019-02-21T04:21:33.864Z,100914.00
2019-02-21T04:24:06.605Z,100912.92
2019-02-21T04:26:39.251Z,100909.09
2019-02-21T04:29:12.138Z,100904.73
2019-02-21T04:31:44.668Z,100900.39
2019-02-21T04:34:17.693Z,100898.81
2019-02-21T04:36:51.545Z,100893.38
2019-02-21T04:39:25.376Z,100890.40
2019-02-21T04:41:58.143Z,100890.03
2019-02-21T04:44:30.774Z,100891.27
2019-02-21T04:47:03.230Z,100896.25
2019-02-21T04:49:37.549Z,100895.06
2019-02-21T04:52:10.044Z,100893.88
2019-02-21T04:54:42.840Z,100892.03
2019-02-21T04:57:16.211Z,100886.34
2019-02-21T04:59:50.211Z,100884.02
2019-02-21T05:02:29.211Z,100888.95
2019-02-21T05:05:03.157Z,100884.66
2019-02-21T05:07:37.377Z,100883.97
2019-02-21T05:10:10.291Z,100880.66
2019-02-21T05:12:45.025Z,100876.97
2019-02-21T05:15:16.798Z,100875.59
2019-02-21T05:17:49.776Z,100881.88
2019-02-21T05:20:22.186Z,100884.45
2019-02-21T05:22:55.174Z,100886.97
2019-02-21T05:25:28.139Z,100886.30
2019-02-21T05:28:07.131Z,100885.70
2019-02-21T05:30:40.452Z,100884.77
2019-02-21T05:33:18.574Z,100885.95
2019-02-21T05:36:00.410Z,100890.09
2019-02-21T05:38:44.242Z,100891.35
2019-02-21T05:41:22.522Z,100893.19
2019-02-21T05:44:11.686Z,100889.31
2019-02-21T05:47:03.830Z,100885.13
2019-02-21T05:49:59.365Z,100890.22
2019-02-21T05:52:39.686Z,100889.88
2019-02-21T05:55:24.535Z,100891.50
2019-02-21T05:58:17.592Z,100889.42
2019-02-21T06:01:12.319Z,100888.81
2019-02-21T06:03:51.439Z,100891.18
2019-02-21T06:06:31.988Z,100895.38
2019-02-21T06:09:16.441Z,100897.78
2019-02-21T06:11:56.806Z,100889.31
2019-02-21T06:14:46.418Z,100889.79
2019-02-21T06:17:40.663Z,100896.85
2019-02-21T06:20:46.620Z,100896.91
2019-02-21T06:23:36.164Z,100896.74
2019-02-21T06:26:17.551Z,100902.44
2019-02-21T06:29:10.437Z,100904.40
2019-02-21T06:31:58.492Z,100916.59
2019-02-21T06:34:31.750Z,100912.99
2019-02-21T06:37:04.959Z,100917.12
2019-02-21T06:39:39.283Z,100917.17
2019-02-21T06:42:11.959Z,100924.63
2019-02-21T06:44:44.721Z,100936.31
2019-02-21T06:47:17.325Z,100933.23
2019-02-21T06:49:49.874Z,100930.09
2019-02-21T06:52:23.106Z,100932.98
2019-02-21T06:54:55.567Z,100931.35
2019-02-21T06:57:28.523Z,100933.88
2019-02-21T07:00:05.354Z,100935.13
2019-02-21T07:02:38.048Z,100940.63
2019-02-21T07:05:10.663Z,100942.04
2019-02-21T07:07:47.506Z,100947.96
2019-02-21T07:10:19.907Z,100952.56
2019-02-21T07:12:54.722Z,100951.22
2019-02-21T07:15:30.669Z,100947.49
2019-02-21T07:18:06.648Z,100948.16
2019-02-21T07:20:41.621Z,100949.43
2019-02-21T07:23:15.114Z,100946.65
2019-02-21T07:25:59.158Z,100942.81
2019-02-21T07:28:31.941Z,100946.34
2019-02-21T07:31:04.428Z,100955.31
2019-02-21T07:33:37.854Z,100956.38
2019-02-21T07:36:11.218Z,100960.44
2019-02-21T07:38:44.156Z,100960.49
2019-02-21T07:41:18.639Z,100957.81
2019-02-21T07:43:52.278Z,100963.16
2019-02-21T07:46:28.003Z,100962.55
2019-02-21T07:49:02.135Z,100966.85
2019-02-21T07:51:35.977Z,100974.11
2019-02-21T07:54:09.713Z,100967.23
2019-02-21T07:56:44.165Z,100971.66
2019-02-21T07:59:16.726Z,100969.77
2019-02-21T08:01:49.170Z,100965.67
2019-02-21T08:04:24.655Z,100965.29
2019-02-21T08:06:57.154Z,100962.36
2019-02-21T08:09:32.595Z,100968.16
2019-02-21T08:12:06.500Z,100978.86
2019-02-21T08:14:43.255Z,100975.63
2019-02-21T08:17:17.797Z,100987.02
2019-02-21T08:19:52.862Z,100989.09
2019-02-21T08:22:25.988Z,100994.91
2019-02-21T08:24:58.504Z,100992.67
2019-02-21T08:27:31.347Z,100987.10
2019-02-21T08:30:09.667Z,100988.18
2019-02-21T08:32:48.251Z,100989.78
2019-02-21T08:35:20.875Z,100993.28
2019-02-21T08:37:54.943Z,100989.13
2019-02-21T08:40:28.957Z,100998.10
2019-02-21T08:43:08.551Z,101003.45
2019-02-21T08:45:41.844Z,101001.21
2019-02-21T08:48:14.488Z,101001.04
2019-02-21T08:50:50.665Z,101007.20
2019-02-21T08:53:28.174Z,101005.84
2019-02-21T08:56:04.537Z,101005.52
2019-02-21T08:58:37.467Z,101005.81
2019-02-21T09:01:11.282Z,101004.45
2019-02-21T09:03:44.001Z,101009.84
2019-02-21T09:06:19.051Z,101017.27
2019-02-21T09:08:52.971Z,101012.21
2019-02-21T09:11:25.607Z,101017.15
2019-02-21T09:13:59.647Z,101031.23
2019-02-21T09:16:33.639Z,101026.45
2019-02-21T09:19:06.181Z,101036.34
2019-02-21T09:21:41.079Z,101023.84
2019-02-21T09:24:26.814Z,101029.09
2019-02-21T09:27:09.143Z,101033.92
2019-02-21T09:29:42.398Z,101038.52
2019-02-21T09:32:16.096Z,101046.20
2019-02-21T09:34:50.345Z,101042.66
2019-02-21T09:37:27.761Z,101037.44
2019-02-21T09:40:01.587Z,101042.02
2019-02-21T09:42:36.330Z,101043.05
2019-02-21T09:45:15.786Z,101044.80
2019-02-21T09:47:49.226Z,101051.57
2019-02-21T09:50:21.751Z,101048.70
2019-02-21T09:52:57.848Z,101054.72
2019-02-21T09:55:30.535Z,101055.02
2019-02-21T09:58:03.124Z,101056.12
2019-02-21T10:00:37.568Z,101047.99
2019-02-21T10:03:10.994Z,101058.64
2019-02-21T10:05:43.571Z,101050.37
2019-02-21T10:08:16.969Z,101047.35
2019-02-21T10:10:52.776Z,101045.97
2019-02-21T10:13:28.618Z,101047.23
2019-02-21T10:16:05.053Z,101056.83
2019-02-21T10:18:38.332Z,101052.62
2019-02-21T10:21:10.875Z,101055.94
2019-02-21T10:23:46.562Z,101055.03
2019-02-21T10:26:19.192Z,101054.84
2019-02-21T10:28:53.364Z,101057.22
2019-02-21T10:31:26.723Z,101069.70
2019-02-21T10:34:06.702Z,101069.64
2019-02-21T10:36:42.342Z,101068.89
2019-02-21T10:39:17.165Z,101060.89
2019-02-21T10:41:51.498Z,101056.67
2019-02-21T10:44:24.153Z,101053.89
2019-02-21T10:46:58.011Z,101048.47
2019-02-21T10:49:31.309Z,101053.28
2019-02-21T10:52:03.913Z,101048.06
2019-02-21T10:54:48.257Z,101042.34
2019-02-21T10:57:20.782Z,101041.50
2019-02-21T10:59:53.379Z,101039.00
2019-02-21T11:02:27.811Z,101038.62
2019-02-21T11:05:01.953Z,101039.08
2019-02-21T11:07:35.210Z,101037.42
2019-02-21T11:10:09.599Z,101038.22
2019-02-21T11:12:42.901Z,101033.89
2019-02-21T11:15:17.422Z,101033.66
2019-02-21T11:17:51.540Z,101033.91
2019-02-21T11:20:24.438Z,101039.62
2019-02-21T11:22:57.112Z,101040.09
2019-02-21T11:25:32.581Z,101036.23
2019-02-21T11:28:08.716Z,101029.44
2019-02-21T11:30:52.283Z,101024.72
2019-02-21T11:33:26.952Z,101026.25
2019-02-21T11:36:00.446Z,101033.27
2019-02-21T11:38:34.440Z,101023.49
2019-02-21T11:41:08.270Z,101028.66
2019-02-21T11:43:41.605Z,101027.71
2019-02-21T11:46:14.844Z,101024.25
2019-02-21T11:48:47.825Z,101028.94
2019-02-21T11:51:20.359Z,101026.75
2019-02-21T11:53:54.351Z,101029.01
2019-02-21T11:56:28.744Z,101031.97
2019-02-21T11:59:03.868Z,101031.23
2019-02-21T12:01:39.638Z,101035.55
2019-02-21T12:04:16.145Z,101035.96
2019-02-21T12:06:48.841Z,101037.63
2019-02-21T12:09:21.851Z,101046.82
2019-02-21T12:11:57.030Z,101042.42
2019-02-21T12:14:31.771Z,101046.10
2019-02-21T12:17:06.266Z,101038.46
2019-02-21T12:19:42.653Z,101041.99
2019-02-21T12:22:19.038Z,101033.20
2019-02-21T12:24:54.163Z,101030.30
2019-02-21T12:27:27.886Z,101030.06
2019-02-21T12:30:00.612Z,101022.45
2019-02-21T12:32:35.126Z,101018.38
2019-02-21T12:35:12.551Z,101017.45
2019-02-21T12:37:45.387Z,101010.78
2019-02-21T12:40:18.799Z,101006.73
2019-02-21T12:42:53.829Z,101000.52
2019-02-21T12:45:29.864Z,101001.20
2019-02-21T12:48:04.395Z,101000.55
2019-02-21T12:50:44.288Z,101005.68
2019-02-21T12:53:21.693Z,101007.02
2019-02-21T12:56:11.054Z,101004.47
2019-02-21T12:58:46.679Z,101003.77
2019-02-21T13:01:19.203Z,100995.90
2019-02-21T13:03:52.229Z,100992.30
2019-02-21T13:06:26.580Z,100994.80
2019-02-21T13:09:00.231Z,100998.95
2019-02-21T13:11:35.545Z,100998.89
2019-02-21T13:14:11.542Z,101008.76
2019-02-21T13:16:46.670Z,101008.15
2019-02-21T13:19:21.589Z,101007.56
2019-02-21T13:21:57.422Z,101010.54
2019-02-21T13:24:30.638Z,101009.90
2019-02-21T13:27:06.950Z,101016.59
2019-02-21T13:29:41.750Z,101019.83
2019-02-21T13:32:16.824Z,101022.02
2019-02-21T13:34:50.469Z,101030.42
2019-02-21T13:37:29.095Z,101024.17
2019-02-21T13:40:05.852Z,101025.47
2019-02-21T13:42:40.650Z,101016.03
2019-02-21T13:45:17.809Z,101018.19
2019-02-21T13:47:52.823Z,101035.58
2019-02-21T13:50:31.161Z,101032.90
2019-02-21T13:53:03.931Z,101051.89
2019-02-21T13:55:39.111Z,101051.11
2019-02-21T13:58:12.716Z,101047.13
2019-02-21T14:00:46.166Z,101050.53
2019-02-21T14:03:19.289Z,101049.00
2019-02-21T14:06:02.997Z,101055.95
2019-02-21T14:08:37.302Z,101058.30
2019-02-21T14:11:10.537Z,101056.43
2019-02-21T14:13:43.009Z,101059.67
2019-02-21T14:16:18.181Z,101053.33
2019-02-21T14:18:51.550Z,101059.94
2019-02-21T14:21:25.588Z,101058.80
2019-02-21T14:24:00.112Z,101053.20
2019-02-21T14:26:33.020Z,101056.09
2019-02-21T14:29:06.631Z,101048.05
2019-02-21T14:31:39.279Z,101047.73
2019-02-21T14:34:12.681Z,101051.01
2019-02-21T14:36:47.237Z,101048.53
2019-02-21T14:39:20.880Z,101049.80
2019-02-21T14:41:54.601Z,101043.77
2019-02-21T14:44:27.321Z,101042.55
2019-02-21T14:47:00.583Z,101036.02
2019-02-21T14:49:34.124Z,101036.02
2019-02-21T14:52:09.761Z,101032.46
2019-02-21T14:54:49.935Z,101041.80
2019-02-21T14:57:23.596Z,101037.47
2019-02-21T14:59:59.832Z,101044.78
2019-02-21T15:02:37.732Z,101044.41
2019-02-21T15:05:52.483Z,101041.97
2019-02-21T15:08:27.359Z,101046.92
2019-02-21T15:11:00.069Z,101044.11
2019-02-21T15:13:42.652Z,101045.31
2019-02-21T15:16:16.996Z,101043.87
2019-02-21T15:18:55.356Z,101044.30
2019-02-21T15:21:33.995Z,101039.75
2019-02-21T15:24:07.634Z,101041.05
2019-02-21T15:26:41.799Z,101035.37
2019-02-21T15:29:15.570Z,101032.73
2019-02-21T15:31:50.387Z,101033.27
2019-02-21T15:34:27.179Z,101035.50
2019-02-21T15:36:59.768Z,101034.34
2019-02-21T15:39:35.297Z,101032.17
2019-02-21T15:42:10.498Z,101033.08
2019-02-21T15:44:45.265Z,101033.77
2019-02-21T15:47:19.592Z,101028.76
2019-02-21T15:49:52.458Z,101031.60
2019-02-21T15:52:28.012Z,101030.06
2019-02-21T15:55:11.869Z,101038.80
2019-02-21T15:57:47.319Z,101038.47
2019-02-21T16:00:21.832Z,101038.53
2019-02-21T16:02:57.346Z,101040.82
2019-02-21T16:05:31.687Z,101040.63
2019-02-21T16:08:06.345Z,101045.92
2019-02-21T16:10:46.318Z,101051.33
2019-02-21T16:13:22.662Z,101051.81
2019-02-21T16:15:58.609Z,101050.53
2019-02-21T16:18:32.553Z,101053.48
2019-02-21T16:21:09.108Z,101047.88
2019-02-21T16:23:48.655Z,101049.83
2019-02-21T16:26:24.661Z,101055.55
2019-02-21T16:28:58.845Z,101059.39
2019-02-21T16:31:31.727Z,101058.80
2019-02-21T16:34:09.172Z,101062.17
2019-02-21T16:36:43.640Z,101065.45
2019-02-21T16:39:18.483Z,101071.91
2019-02-21T16:41:52.972Z,101073.23
2019-02-21T16:44:30.422Z,101071.40
2019-02-21T16:47:05.766Z,101076.29
2019-02-21T16:49:44.005Z,101075.41
2019-02-21T16:52:18.278Z,101083.47
2019-02-21T16:54:51.575Z,101088.39
2019-02-21T16:57:25.556Z,101088.91
2019-02-21T16:59:58.844Z,101097.05
2019-02-21T17:02:34.359Z,101095.45
2019-02-21T17:05:08.785Z,101096.74
2019-02-21T17:07:44.697Z,101113.23
2019-02-21T17:10:21.088Z,101110.61
2019-02-21T17:12:55.485Z,101122.55
2019-02-21T17:15:29.363Z,101124.87
2019-02-21T17:18:03.731Z,101124.42
2019-02-21T17:20:39.835Z,101133.88
2019-02-21T17:23:22.529Z,101145.64
2019-02-21T17:26:00.688Z,101134.84
2019-02-21T17:28:41.510Z,101138.72
2019-02-21T17:31:17.457Z,101140.77
2019-02-21T17:33:53.399Z,101143.36
2019-02-21T17:36:32.630Z,101144.91
2019-02-21T17:39:10.559Z,101145.41
2019-02-21T17:41:53.964Z,101139.38
2019-02-21T17:44:31.748Z,101137.57
2019-02-21T17:47:06.479Z,101135.96
2019-02-21T17:49:44.641Z,101128.20
2019-02-21T17:52:21.244Z,101137.09
2019-02-21T17:54:55.563Z,101138.44
2019-02-21T17:57:30.849Z,101141.80
2019-02-21T18:00:17.116Z,101140.45
2019-02-21T18:02:50.099Z,101149.83
2019-02-21T18:05:22.845Z,101162.80
2019-02-21T18:07:57.167Z,101167.24
2019-02-21T18:10:30.393Z,101173.39
2019-02-21T18:13:10.831Z,101173.01
2019-02-21T18:15:47.270Z,101173.79
2019-02-21T18:18:19.869Z,101183.22
2019-02-21T18:20:57.070Z,101184.89
2019-02-21T18:23:29.762Z,101187.55
2019-02-21T18:26:17.100Z,101189.04
2019-02-21T18:28:52.400Z,101188.19
2019-02-21T18:31:26.610Z,101190.12
2019-02-21T18:34:02.195Z,101190.20
2019-02-21T18:36:42.071Z,101192.29
2019-02-21T18:39:17.906Z,101181.88
2019-02-21T18:41:51.999Z,101190.24
2019-02-21T18:44:25.167Z,101187.22
2019-02-21T18:47:00.527Z,101194.77
2019-02-21T18:49:38.769Z,101191.69
2019-02-21T18:52:19.657Z,101192.47
2019-02-21T18:54:56.545Z,101190.33
2019-02-21T18:57:29.958Z,101195.64
2019-02-21T19:00:04.776Z,101194.20
2019-02-21T19:02:37.457Z,101191.89
2019-02-21T19:05:10.271Z,101193.86
2019-02-21T19:07:43.019Z,101198.23
2019-02-21T19:10:18.813Z,101194.78
2019-02-21T19:12:53.793Z,101201.05
2019-02-21T19:15:32.865Z,101195.81
2019-02-21T19:18:11.046Z,101207.90
2019-02-21T19:20:44.641Z,101208.12
2019-02-21T19:23:20.168Z,101210.09
2019-02-21T19:25:55.445Z,101209.14
2019-02-21T19:28:29.408Z,101210.25
2019-02-21T19:31:13.085Z,101214.19
2019-02-21T19:33:49.157Z,101209.84
2019-02-21T19:36:22.859Z,101207.05
2019-02-21T19:38:57.934Z,101209.12
2019-02-21T19:41:31.479Z,101212.34
2019-02-21T19:44:09.179Z,101213.30
2019-02-21T19:46:44.196Z,101219.79
2019-02-21T19:49:20.174Z,101227.06
2019-02-21T19:51:54.267Z,101225.18
2019-02-21T19:54:26.975Z,101231.92
2019-02-21T19:57:10.278Z,101228.27
2019-02-21T19:59:53.905Z,101235.34
2019-02-21T20:02:30.097Z,101237.39
2019-02-21T20:05:06.636Z,101246.46
2019-02-21T20:07:40.890Z,101244.05
2019-02-21T20:10:19.030Z,101242.60
2019-02-21T20:12:58.361Z,101247.92
2019-02-21T20:15:34.912Z,101246.95
2019-02-21T20:18:12.027Z,101251.30
2019-02-21T20:20:46.809Z,101259.89
2019-02-21T20:23:32.386Z,101263.90
2019-02-21T20:26:17.712Z,101265.30
2019-02-21T20:28:55.067Z,101266.47
2019-02-21T20:31:29.814Z,101265.75
2019-02-21T20:34:04.857Z,101275.35
2019-02-21T20:36:50.468Z,101274.55
2019-02-21T20:39:26.577Z,101274.81
2019-02-21T20:42:01.164Z,101281.19
2019-02-21T20:44:36.211Z,101283.52
2019-02-21T20:47:10.791Z,101280.86
2019-02-21T20:49:46.388Z,101287.16
2019-02-21T20:52:21.341Z,101291.84
2019-02-21T20:54:59.470Z,101299.41
2019-02-21T20:57:35.832Z,101297.45
2019-02-21T21:00:20.358Z,101308.24
2019-02-21T21:02:54.559Z,101310.22
2019-02-21T21:05:28.726Z,101314.16
2019-02-21T21:08:08.619Z,101316.45
2019-02-21T21:10:43.027Z,101316.09
2019-02-21T21:13:17.776Z,101325.02
2019-02-21T21:15:53.559Z,101328.30
2019-02-21T21:18:28.361Z,101330.98
2019-02-21T21:21:04.674Z,101326.85
2019-02-21T21:23:37.328Z,101333.38
2019-02-21T21:26:12.863Z,101341.70
2019-02-21T21:28:46.983Z,101346.26
2019-02-21T21:31:25.204Z,101347.44
2019-02-21T21:34:02.760Z,101343.59
2019-02-21T21:36:36.038Z,101350.49
2019-02-21T21:39:12.677Z,101350.70
2019-02-21T21:41:48.720Z,101352.41
2019-02-21T21:44:23.133Z,101356.28
2019-02-21T21:47:02.612Z,101357.20
2019-02-21T21:49:39.821Z,101365.77
2019-02-21T21:52:13.058Z,101369.55
2019-02-21T21:54:51.053Z,101371.63
2019-02-21T21:57:29.008Z,101375.48
2019-02-21T22:00:06.794Z,101376.34
2019-02-21T22:02:41.675Z,101378.69
2019-02-21T22:05:14.362Z,101375.21
2019-02-21T22:07:49.171Z,101375.77
2019-02-21T22:10:22.943Z,101376.30
2019-02-21T22:13:03.588Z,101372.06
2019-02-21T22:15:37.831Z,101372.56
2019-02-21T22:18:13.485Z,101377.27
2019-02-21T22:20:46.169Z,101387.00
2019-02-21T22:23:20.739Z,101384.44
2019-02-21T22:25:59.158Z,101389.74
2019-02-21T22:28:33.451Z,101386.09
2019-02-21T22:31:17.730Z,101388.98
2019-02-21T22:33:50.596Z,101395.11
2019-02-21T22:36:27.210Z,101388.50
2019-02-21T22:39:02.170Z,101387.28
2019-02-21T22:41:40.243Z,101378.89
2019-02-21T22:44:14.418Z,101380.58
2019-02-21T22:46:50.337Z,101381.22
2019-02-21T22:49:25.589Z,101379.39
2019-02-21T22:52:02.208Z,101380.86
2019-02-21T22:54:37.805Z,101378.87
2019-02-21T22:57:10.369Z,101384.82
2019-02-21T22:59:46.263Z,101395.55
2019-02-21T23:02:21.118Z,101401.64
2019-02-21T23:05:31.209Z,101400.25
2019-02-21T23:08:51.338Z,101405.56
2019-02-21T23:11:24.423Z,101404.95
2019-02-21T23:14:00.232Z,101405.04
2019-02-21T23:16:32.775Z,101411.29
2019-02-21T23:19:07.738Z,101409.58
2019-02-21T23:21:42.637Z,101409.36
2019-02-21T23:24:17.327Z,101411.41
2019-02-21T23:26:52.405Z,101416.70
2019-02-21T23:29:26.913Z,101416.41
2019-02-21T23:31:59.782Z,101416.33
2019-02-21T23:34:37.509Z,101412.78
2019-02-21T23:37:11.218Z,101411.41
2019-02-21T23:39:44.180Z,101408.53
2019-02-21T23:42:18.465Z,101408.19
2019-02-21T23:44:51.687Z,101411.04
2019-02-21T23:47:24.244Z,101410.08
2019-02-21T23:49:58.535Z,101409.85
2019-02-21T23:52:31.722Z,101412.34
2019-02-21T23:55:04.800Z,101411.59
2019-02-21T23:57:38.859Z,101412.67
